George Bush Intercontinental Houston Airport
KIAH : now visible

Airfield :











YOU CAN JOIN US ON...

 
LOGIN :

Register | Disclaimer

   EN    FR    IT 

 









Legend :    VFR   Marginal VFR   IFR   Intensive IFR   Very Intensive IFR
Visi :
Ceiling :
>= 8 km
>= 3000ft
5 to 8 km
1000 to 3000 ft
1500m to 5 km
500 to 1000 ft
800 to 1500m
200 to 500 ft
< 800m
< 200 ft
Symbols :   Thunderstorms  Fog  Heavy snow  Heavy precipitations  Wind > 20 kt






- Airport Elevation : 97 ft
- IATA code : IAH


KIAH - George Bush Intercontinental Houston

CURRENT METAR :
  • 192253Z 13010KT 10SM FEW180 BKN250 23/12 A2996 RMK AO2 SLP146 T02280117

EXPIRED METARs :
  • 192153Z 18005KT 10SM BKN250 26/11 A2996 RMK AO2 SLP145 T02560106
  • 192053Z 20005KT 10SM BKN250 26/09 A2996 RMK AO2 SLP146 T02610094 56013
  • 191953Z 21004KT 10SM BKN250 26/11 A2997 RMK AO2 SLP147 T02560106

TAF KIAH
Valid from the 19 at 21:00 until the 21 at 00:00 UTC


192120Z 1921/2024 15005KT P6SM BKN250
FM200600 14003KT 6SM BR FEW008 SCT025
FM201400 14008KT P6SM SCT015 BKN035
FM201700 16012KT P6SM BKN025



MET'MAP, your aeronautical weather chart ! - Copyright ORBIFLY December 2007 - Disclaimer

ORBIFLY MET'MAP TEAM :

Programming & Development : Alexandra Zaïnal
Concept & Development : Baudouin d'Aumeries
Co-Development & Prog : Marc-Olivier Méhu
Technical & hardware support : Manuel Goepfert

Contact : metmap@orbifly.com




SOURCES & CREDITS :

   NOAA       Earth
Advisory